KAKR/AKR METAR and TAF weather

Enter ICAO airport designator
Station Type Date Time Source
KAKR METAR 2022/08/16 17:54 UTC NOAA

KAKR 161754Z AUTO 08011KT 10SM FEW043 OVC060 24/14 A3005 RMK AO2 SLP169 T02440139 10261 20183 56001 TSNO


Station Type Date Time Source
KAKR Decoded METAR 2022/08/16 17:54 UTC NOAA

AKRON FULTON INTERNATIONAL, OH, United States (KAKR) 41-02N 081-28W 363M
Aug 16, 2022 - 01:54 PM EDT / 2022.08.16 1754 UTC
Wind: from the E (080 degrees) at 13 MPH (11 KT):0
Visibility: 10 mile(s):0
Sky conditions: overcast
Temperature: 75.9 F (24.4 C)
Dew Point: 57.0 F (13.9 C)
Relative Humidity: 51%
Pressure (altimeter): 30.05 in. Hg (1017 hPa)
Pressure tendency: 0.00 inches (0.1 hPa) lower than three hours ago
ob: KAKR 161754Z AUTO 08011KT 10SM FEW043 OVC060 24/14 A3005 RMK AO2 SLP169 T02440139 10261 20183 56001 TSNO
cycle: 18

Station Type Date Time Source
KAKR TAF UTC NOAA

Error!

Example: see airport list